createdAt,value
2022-08-12T00:00:55.291Z,21.17
2022-08-12T00:03:40.997Z,21.16
2022-08-12T00:06:27.253Z,21.02
2022-08-12T00:09:13.433Z,21.08
2022-08-12T00:12:00.071Z,21.16
2022-08-12T00:14:46.089Z,21.01
2022-08-12T00:17:32.297Z,21.01
2022-08-12T00:20:18.268Z,21.04
2022-08-12T00:23:06.008Z,20.94
2022-08-12T00:26:21.104Z,20.92
2022-08-12T00:29:08.620Z,20.68
2022-08-12T00:31:54.464Z,20.71
2022-08-12T00:34:40.132Z,20.78
2022-08-12T00:37:26.246Z,20.89
2022-08-12T00:40:15.606Z,20.78
2022-08-12T00:42:42.968Z,20.80
2022-08-12T00:45:10.985Z,20.78
2022-08-12T00:47:39.261Z,20.61
2022-08-12T00:50:07.494Z,20.71
2022-08-12T00:52:35.905Z,20.57
2022-08-12T00:55:05.534Z,20.64
2022-08-12T00:57:38.483Z,20.57
2022-08-12T01:00:13.612Z,20.54
2022-08-12T01:02:46.338Z,20.49
2022-08-12T01:05:37.180Z,20.38
2022-08-12T01:08:24.388Z,20.49
2022-08-12T01:11:10.331Z,20.36
2022-08-12T01:13:44.811Z,20.45
2022-08-12T01:16:12.227Z,20.42
2022-08-12T01:18:40.659Z,20.31
2022-08-12T01:21:39.162Z,20.31
2022-08-12T01:24:31.073Z,20.31
2022-08-12T01:27:02.553Z,20.47
2022-08-12T01:29:34.617Z,20.26
2022-08-12T01:32:08.896Z,20.35
2022-08-12T01:34:39.686Z,20.22
2022-08-12T01:37:09.787Z,20.16
2022-08-12T01:40:35.260Z,20.44
2022-08-12T01:43:08.871Z,20.37
2022-08-12T01:45:47.550Z,20.33
2022-08-12T01:48:47.999Z,20.05
2022-08-12T01:52:15.288Z,20.22
2022-08-12T01:54:29.840Z,20.07
2022-08-12T01:57:07.099Z,20.25
2022-08-12T02:00:02.047Z,20.13
2022-08-12T02:03:19.996Z,20.02
2022-08-12T02:06:38.823Z,20.06
2022-08-12T02:09:29.436Z,20.11
2022-08-12T02:12:39.169Z,20.13
2022-08-12T02:15:27.548Z,20.26
2022-08-12T02:18:37.648Z,20.09
2022-08-12T02:21:13.595Z,20.16
2022-08-12T02:23:42.088Z,19.96
2022-08-12T02:26:13.154Z,19.89
2022-08-12T02:28:40.380Z,20.17
2022-08-12T02:31:09.196Z,20.11
2022-08-12T02:33:37.992Z,20.06
2022-08-12T02:36:06.387Z,19.91
2022-08-12T02:38:33.951Z,19.85
2022-08-12T02:41:05.402Z,19.88
2022-08-12T02:44:09.434Z,20.01
2022-08-12T02:46:39.780Z,19.99
2022-08-12T02:49:19.473Z,20.12
2022-08-12T02:51:46.492Z,20.11
2022-08-12T02:54:13.856Z,19.95
2022-08-12T02:56:50.589Z,19.98
2022-08-12T02:59:23.789Z,19.86
2022-08-12T03:02:03.603Z,19.80
2022-08-12T03:04:43.674Z,19.92
2022-08-12T03:07:16.669Z,19.99
2022-08-12T03:10:04.238Z,19.64
2022-08-12T03:12:49.459Z,19.67
2022-08-12T03:15:22.982Z,19.70
2022-08-12T03:18:25.695Z,19.76
2022-08-12T03:20:58.041Z,19.60
2022-08-12T03:23:28.854Z,19.80
2022-08-12T03:26:03.392Z,19.77
2022-08-12T03:28:53.431Z,19.91
2022-08-12T03:31:32.463Z,19.65
2022-08-12T03:34:12.762Z,19.85
2022-08-12T03:36:42.377Z,20.03
2022-08-12T03:39:16.091Z,20.02
2022-08-12T03:42:11.270Z,20.09
2022-08-12T03:45:06.686Z,19.93
2022-08-12T03:47:57.315Z,19.89
2022-08-12T03:50:44.210Z,19.89
2022-08-12T03:53:31.078Z,19.77
2022-08-12T03:56:16.765Z,19.75
2022-08-12T03:59:02.708Z,19.79
2022-08-12T04:01:29.991Z,19.61
2022-08-12T04:03:58.136Z,19.92
2022-08-12T04:06:35.852Z,19.81
2022-08-12T04:09:15.619Z,19.79
2022-08-12T04:12:04.178Z,19.72
2022-08-12T04:14:32.671Z,19.71
2022-08-12T04:17:01.032Z,19.69
2022-08-12T04:19:29.375Z,19.50
2022-08-12T04:22:02.115Z,19.70
2022-08-12T04:24:36.705Z,19.57
2022-08-12T04:27:09.942Z,19.64
2022-08-12T04:30:30.176Z,19.60
2022-08-12T04:32:26.398Z,19.51
2022-08-12T04:34:54.189Z,19.77
2022-08-12T04:37:21.255Z,19.79
2022-08-12T04:39:49.215Z,19.97
2022-08-12T04:42:16.498Z,19.61
2022-08-12T04:44:44.505Z,19.84
2022-08-12T04:47:14.460Z,19.67
2022-08-12T04:49:43.451Z,19.84
2022-08-12T04:52:11.051Z,20.01
2022-08-12T04:54:38.846Z,20.10
2022-08-12T04:57:09.743Z,20.24
2022-08-12T04:59:46.781Z,20.57
2022-08-12T05:02:22.128Z,21.22
2022-08-12T05:05:00.514Z,21.41
2022-08-12T05:07:28.266Z,23.92
2022-08-12T05:10:01.133Z,23.23
2022-08-12T05:12:41.506Z,22.64
2022-08-12T05:15:27.555Z,22.60
2022-08-12T05:17:56.053Z,22.04
2022-08-12T05:20:26.179Z,21.93
2022-08-12T05:23:13.049Z,21.78
2022-08-12T05:25:46.098Z,21.63
2022-08-12T05:28:14.903Z,21.73
2022-08-12T05:30:43.171Z,21.97
2022-08-12T05:33:12.195Z,22.30
2022-08-12T05:35:43.189Z,22.47
2022-08-12T05:38:32.340Z,23.81
2022-08-12T05:41:01.224Z,25.77
2022-08-12T05:43:29.031Z,30.21
2022-08-12T05:45:56.267Z,33.55
2022-08-12T05:48:23.478Z,35.83
2022-08-12T05:50:50.749Z,37.04
2022-08-12T05:53:17.750Z,36.88
2022-08-12T05:55:44.806Z,36.72
2022-08-12T05:58:11.809Z,36.45
2022-08-12T06:00:38.961Z,38.28
2022-08-12T06:03:08.275Z,37.09
2022-08-12T06:05:54.558Z,37.89
2022-08-12T06:08:23.969Z,39.20
2022-08-12T06:10:51.430Z,38.21
2022-08-12T06:13:28.322Z,37.74
2022-08-12T06:15:56.509Z,39.16
2022-08-12T06:18:29.224Z,39.11
2022-08-12T06:21:00.170Z,40.81
2022-08-12T06:23:29.825Z,38.43
2022-08-12T06:25:58.783Z,39.83
2022-08-12T06:28:30.595Z,41.34
2022-08-12T06:31:24.353Z,40.64
2022-08-12T06:33:59.447Z,35.92
2022-08-12T06:36:35.483Z,34.37
2022-08-12T06:39:04.985Z,34.53
2022-08-12T06:42:28.547Z,36.71
2022-08-12T06:44:50.539Z,40.02
2022-08-12T06:47:19.490Z,40.08
2022-08-12T06:49:46.774Z,41.55
2022-08-12T06:52:13.865Z,42.87
2022-08-12T06:54:44.392Z,42.67
2022-08-12T06:58:05.341Z,43.12
2022-08-12T06:59:58.702Z,42.14
2022-08-12T07:02:25.945Z,42.23
2022-08-12T07:04:52.981Z,42.01
2022-08-12T07:07:20.004Z,42.77
2022-08-12T07:10:06.983Z,42.57
2022-08-12T07:12:34.412Z,42.72
2022-08-12T07:15:01.929Z,43.08
2022-08-12T07:17:37.755Z,42.10
2022-08-12T07:20:51.129Z,41.66
2022-08-12T07:23:03.090Z,42.28
2022-08-12T07:25:40.675Z,42.04
2022-08-12T07:28:16.848Z,41.54
2022-08-12T07:30:46.879Z,41.86
2022-08-12T07:33:16.953Z,40.36
2022-08-12T07:35:47.982Z,40.62
2022-08-12T07:38:35.620Z,39.57
2022-08-12T07:41:15.646Z,38.44
2022-08-12T07:43:53.939Z,38.63
2022-08-12T07:46:43.318Z,39.08
2022-08-12T07:49:14.203Z,39.63
2022-08-12T07:51:43.216Z,38.28
2022-08-12T07:54:12.948Z,37.76
2022-08-12T07:56:42.506Z,39.43
2022-08-12T07:59:10.313Z,38.72
2022-08-12T08:01:38.382Z,36.64
2022-08-12T08:04:25.713Z,34.96
2022-08-12T08:06:53.761Z,35.11
2022-08-12T08:09:23.820Z,34.49
2022-08-12T08:12:18.881Z,33.96
2022-08-12T08:14:49.726Z,34.57
2022-08-12T08:17:17.519Z,34.05
2022-08-12T08:20:03.299Z,34.85
2022-08-12T08:22:40.741Z,34.69
2022-08-12T08:25:35.338Z,33.79
2022-08-12T08:28:04.386Z,33.92
2022-08-12T08:30:33.156Z,33.39
2022-08-12T08:33:00.228Z,33.37
2022-08-12T08:35:35.780Z,34.33
2022-08-12T08:38:32.354Z,33.22
2022-08-12T08:42:16.729Z,31.11
2022-08-12T08:44:12.237Z,30.31
2022-08-12T08:46:44.538Z,30.84
2022-08-12T08:49:12.920Z,31.28
2022-08-12T08:51:40.562Z,30.76
2022-08-12T08:54:17.229Z,29.71
2022-08-12T08:56:44.644Z,29.90
2022-08-12T08:59:13.579Z,30.20
2022-08-12T09:01:44.534Z,30.44
2022-08-12T09:05:11.494Z,30.17
2022-08-12T09:07:18.155Z,29.85
2022-08-12T09:12:55.240Z,29.87
2022-08-12T09:15:35.674Z,29.30
2022-08-12T09:18:09.089Z,29.57
2022-08-12T09:20:38.764Z,29.01
2022-08-12T09:23:57.124Z,29.64
2022-08-12T09:28:53.128Z,29.94
2022-08-12T09:32:03.915Z,30.09
2022-08-12T09:34:28.602Z,29.81
2022-08-12T09:37:02.524Z,29.37
2022-08-12T09:40:04.395Z,28.85
2022-08-12T09:43:16.072Z,28.01
2022-08-12T09:46:10.985Z,28.05
2022-08-12T09:48:36.067Z,27.88
2022-08-12T09:51:17.070Z,27.67
2022-08-12T09:54:09.048Z,27.60
2022-08-12T09:57:01.040Z,27.87
2022-08-12T10:00:14.575Z,27.60
2022-08-12T10:02:44.332Z,27.27
2022-08-12T10:05:01.786Z,26.98
2022-08-12T10:07:39.471Z,26.75
2022-08-12T10:10:22.533Z,26.65
2022-08-12T10:13:35.854Z,26.83
2022-08-12T10:16:23.115Z,27.14
2022-08-12T10:18:59.848Z,26.87
2022-08-12T10:21:38.850Z,27.44
2022-08-12T10:24:14.678Z,27.89
2022-08-12T10:27:07.065Z,28.33
2022-08-12T10:30:37.939Z,28.43
2022-08-12T10:32:43.831Z,28.72
2022-08-12T10:35:15.840Z,28.69
2022-08-12T10:38:37.677Z,28.81
2022-08-12T10:40:34.025Z,28.60
2022-08-12T10:43:24.851Z,28.28
2022-08-12T10:45:58.442Z,28.24
2022-08-12T10:48:33.485Z,28.40
2022-08-12T10:51:51.876Z,28.06
2022-08-12T10:54:00.819Z,28.06
2022-08-12T10:56:34.807Z,28.23
2022-08-12T10:59:10.512Z,28.57
2022-08-12T11:04:17.918Z,28.51
2022-08-12T11:04:39.456Z,28.36
2022-08-12T11:08:34.412Z,27.72
2022-08-12T11:10:02.534Z,27.26
2022-08-12T11:12:55.585Z,27.30
2022-08-12T11:15:33.539Z,26.95
2022-08-12T11:18:11.983Z,26.88
2022-08-12T11:20:47.921Z,26.86
2022-08-12T11:23:26.032Z,26.77
2022-08-12T11:26:05.330Z,26.78
2022-08-12T11:28:37.159Z,26.74
2022-08-12T11:31:11.946Z,26.74
2022-08-12T11:34:05.996Z,26.83
2022-08-12T11:36:30.653Z,26.89
2022-08-12T11:38:58.447Z,26.89
2022-08-12T11:41:33.235Z,26.79
2022-08-12T11:44:36.272Z,26.80
2022-08-12T11:46:52.892Z,26.99
2022-08-12T11:49:31.400Z,27.05
2022-08-12T11:52:03.985Z,27.41
2022-08-12T11:54:32.031Z,27.69
2022-08-12T11:57:02.808Z,27.82
2022-08-12T12:02:35.962Z,27.93
2022-08-12T12:05:03.067Z,27.82
2022-08-12T12:08:36.222Z,27.64
2022-08-12T12:10:21.468Z,27.65
2022-08-12T12:12:49.501Z,27.70
2022-08-12T12:15:25.418Z,27.87
2022-08-12T12:18:06.017Z,27.82
2022-08-12T12:20:34.851Z,27.67
2022-08-12T12:23:02.015Z,28.00
2022-08-12T12:26:06.812Z,28.01
2022-08-12T12:28:19.980Z,27.81
2022-08-12T12:31:04.029Z,27.96
2022-08-12T12:33:57.096Z,28.00
2022-08-12T12:36:23.194Z,28.01
2022-08-12T12:38:53.592Z,28.13
2022-08-12T12:41:20.611Z,28.34
2022-08-12T12:43:56.494Z,28.57
2022-08-12T12:46:31.348Z,28.70
2022-08-12T12:48:58.447Z,28.24
2022-08-12T12:51:56.448Z,28.30
2022-08-12T12:54:12.761Z,28.27
2022-08-12T12:56:44.486Z,28.18
2022-08-12T12:59:56.723Z,27.47
2022-08-12T13:02:06.203Z,27.37
2022-08-12T13:04:37.323Z,27.19
2022-08-12T13:07:05.968Z,26.63
2022-08-12T13:09:36.205Z,26.71
2022-08-12T13:12:10.418Z,26.63
2022-08-12T13:14:39.800Z,26.69
2022-08-12T13:17:14.575Z,26.66
2022-08-12T13:19:48.406Z,26.73
2022-08-12T13:22:23.679Z,26.80
2022-08-12T13:24:56.426Z,26.89
2022-08-12T13:27:35.225Z,27.14
2022-08-12T13:30:10.969Z,27.33
2022-08-12T13:32:56.691Z,27.43
2022-08-12T13:35:32.929Z,27.38
2022-08-12T13:38:02.751Z,27.44
2022-08-12T13:40:33.526Z,27.68
2022-08-12T13:43:02.457Z,27.71
2022-08-12T13:45:34.270Z,27.61
2022-08-12T13:48:04.968Z,27.75
2022-08-12T13:50:36.562Z,27.79
2022-08-12T13:53:24.895Z,27.60
2022-08-12T13:56:01.675Z,27.65
2022-08-12T13:58:32.991Z,27.40
2022-08-12T14:01:05.558Z,27.00
2022-08-12T14:03:50.706Z,26.95
2022-08-12T14:06:19.628Z,26.98
2022-08-12T14:08:49.642Z,26.61
2022-08-12T14:11:18.412Z,26.79
2022-08-12T14:14:04.101Z,26.90
2022-08-12T14:16:48.202Z,27.09
2022-08-12T14:19:21.986Z,26.96
2022-08-12T14:21:59.249Z,27.12
2022-08-12T14:24:30.656Z,27.07
2022-08-12T14:26:58.720Z,27.09
2022-08-12T14:29:56.066Z,27.28
2022-08-12T14:32:17.854Z,27.23
2022-08-12T14:34:49.189Z,27.31
2022-08-12T14:37:56.540Z,27.64
2022-08-12T14:40:05.194Z,27.75
2022-08-12T14:42:32.321Z,27.62
2022-08-12T14:45:01.613Z,27.85
2022-08-12T14:47:35.426Z,28.03
2022-08-12T14:50:37.407Z,27.75
2022-08-12T14:58:31.864Z,28.12
2022-08-12T15:01:21.493Z,28.05
2022-08-12T15:03:57.853Z,27.94
2022-08-12T15:06:39.422Z,28.01
2022-08-12T15:09:13.580Z,27.72
2022-08-12T15:11:54.418Z,27.71
2022-08-12T15:14:27.410Z,27.77
2022-08-12T15:16:54.756Z,27.66
2022-08-12T15:20:31.832Z,27.85
2022-08-12T15:22:37.786Z,27.78
2022-08-12T15:24:56.800Z,27.68
2022-08-12T15:28:10.788Z,27.69
2022-08-12T15:30:11.028Z,27.63
2022-08-12T15:32:38.006Z,27.58
2022-08-12T15:35:12.093Z,27.43
2022-08-12T15:37:58.948Z,27.37
2022-08-12T15:40:30.241Z,27.11
2022-08-12T15:43:03.977Z,27.11
2022-08-12T15:45:39.136Z,26.95
2022-08-12T15:48:17.080Z,27.10
2022-08-12T15:50:53.103Z,26.98
2022-08-12T15:53:42.616Z,26.92
2022-08-12T15:56:12.501Z,26.79
2022-08-12T15:58:43.625Z,26.63
2022-08-12T16:01:17.442Z,26.50
2022-08-12T16:04:00.342Z,26.46
2022-08-12T16:06:52.061Z,26.22
2022-08-12T16:09:21.719Z,26.14
2022-08-12T16:11:48.870Z,26.06
2022-08-12T16:14:16.424Z,26.06
2022-08-12T16:16:43.845Z,25.68
2022-08-12T16:20:03.271Z,25.28
2022-08-12T16:22:07.188Z,25.06
2022-08-12T16:24:43.680Z,24.69
2022-08-12T16:27:11.193Z,24.51
2022-08-12T16:29:53.137Z,24.40
2022-08-12T16:32:24.180Z,24.32
2022-08-12T16:34:54.829Z,23.66
2022-08-12T16:37:32.379Z,23.09
2022-08-12T16:40:06.065Z,23.02
2022-08-12T16:42:42.056Z,23.09
2022-08-12T16:45:23.394Z,23.12
2022-08-12T16:48:00.705Z,23.36
2022-08-12T16:50:30.865Z,23.31
2022-08-12T16:53:02.116Z,23.43
2022-08-12T16:55:41.881Z,23.46
2022-08-12T16:58:28.342Z,23.59
2022-08-12T17:01:02.879Z,23.58
2022-08-12T17:03:37.695Z,23.45
2022-08-12T17:06:07.257Z,23.47
2022-08-12T17:08:38.322Z,23.48
2022-08-12T17:11:17.996Z,23.06
2022-08-12T17:13:53.391Z,22.86
2022-08-12T17:16:21.724Z,23.02
2022-08-12T17:18:57.815Z,23.02
2022-08-12T17:21:40.683Z,23.27
2022-08-12T17:24:21.462Z,23.29
2022-08-12T17:26:53.794Z,23.21
2022-08-12T17:29:24.210Z,23.08
2022-08-12T17:32:02.934Z,23.28
2022-08-12T17:34:51.081Z,23.34
2022-08-12T17:37:18.080Z,23.26
2022-08-12T17:40:16.017Z,23.19
2022-08-12T17:42:35.657Z,23.08
2022-08-12T17:45:18.619Z,23.04
2022-08-12T17:48:01.390Z,23.13
2022-08-12T17:50:39.562Z,22.93
2022-08-12T17:53:10.766Z,22.83
2022-08-12T17:55:47.703Z,22.87
2022-08-12T17:58:36.996Z,22.95
2022-08-12T18:01:06.323Z,22.90
2022-08-12T18:03:57.679Z,22.72
2022-08-12T18:06:31.114Z,22.77
2022-08-12T18:09:09.450Z,22.78
2022-08-12T18:12:04.242Z,22.79
2022-08-12T18:14:36.625Z,22.73
2022-08-12T18:17:08.295Z,22.59
2022-08-12T18:20:05.626Z,22.72
2022-08-12T18:22:30.783Z,22.73
2022-08-12T18:25:08.750Z,22.57
2022-08-12T18:28:15.827Z,22.45
2022-08-12T18:30:52.975Z,22.49
2022-08-12T18:33:25.663Z,22.51
2022-08-12T18:35:56.659Z,22.48
2022-08-12T18:38:26.291Z,22.51
2022-08-12T18:41:21.679Z,22.59
2022-08-12T18:44:07.854Z,22.58
2022-08-12T18:46:45.885Z,22.49
2022-08-12T18:49:30.799Z,22.51
2022-08-12T18:52:04.829Z,22.49
2022-08-12T18:54:48.956Z,22.44
2022-08-12T18:58:06.048Z,22.40
2022-08-12T19:00:22.220Z,22.52
2022-08-12T19:02:53.331Z,22.40
2022-08-12T19:05:53.663Z,22.27
2022-08-12T19:08:13.129Z,22.35
2022-08-12T19:10:50.787Z,22.35
2022-08-12T19:13:40.034Z,22.37
2022-08-12T19:16:10.853Z,22.45
2022-08-12T19:18:41.002Z,22.35
2022-08-12T19:21:16.655Z,22.46
2022-08-12T19:24:07.644Z,22.33
2022-08-12T19:26:35.846Z,22.39
2022-08-12T19:29:05.331Z,22.26
2022-08-12T19:31:45.169Z,22.39
2022-08-12T19:38:04.173Z,22.27
2022-08-12T19:40:33.117Z,22.20
2022-08-12T19:43:17.847Z,22.25
2022-08-12T19:45:53.684Z,22.28
2022-08-12T19:48:24.733Z,22.36
2022-08-12T19:50:57.420Z,22.50
2022-08-12T19:53:27.699Z,22.43
2022-08-12T19:55:57.542Z,22.32
2022-08-12T19:58:26.860Z,22.25
2022-08-12T20:00:55.457Z,22.30
2022-08-12T20:03:38.326Z,22.32
2022-08-12T20:06:08.745Z,22.16
2022-08-12T20:08:49.264Z,22.30
2022-08-12T20:12:12.014Z,22.29
2022-08-12T20:14:19.287Z,22.31
2022-08-12T20:16:56.319Z,22.08
2022-08-12T20:19:28.576Z,22.26
2022-08-12T20:22:24.705Z,22.12
2022-08-12T20:25:00.963Z,22.12
2022-08-12T20:27:53.893Z,22.18
2022-08-12T20:30:20.728Z,22.19
2022-08-12T20:33:18.524Z,22.17
2022-08-12T20:36:13.705Z,22.11
2022-08-12T20:38:38.392Z,22.06
2022-08-12T20:41:17.873Z,21.92
2022-08-12T20:43:57.238Z,21.87
2022-08-12T20:46:32.287Z,21.83
2022-08-12T20:49:17.345Z,21.90
2022-08-12T20:51:54.763Z,21.83
2022-08-12T20:54:23.035Z,21.76
2022-08-12T20:57:07.347Z,21.86
2022-08-12T20:59:47.850Z,21.88
2022-08-12T21:02:15.647Z,21.76
2022-08-12T21:05:01.143Z,21.73
2022-08-12T21:07:34.282Z,21.77
2022-08-12T21:10:08.197Z,21.89
2022-08-12T21:12:38.288Z,21.66
2022-08-12T21:15:22.951Z,21.61
2022-08-12T21:18:10.843Z,21.38
2022-08-12T21:20:51.458Z,21.44
2022-08-12T21:23:21.357Z,21.29
2022-08-12T21:25:50.946Z,21.42
2022-08-12T21:28:20.642Z,21.43
2022-08-12T21:31:11.587Z,21.45
2022-08-12T21:34:07.958Z,21.29
2022-08-12T21:36:34.383Z,21.15
2022-08-12T21:39:20.323Z,21.39
2022-08-12T21:41:52.031Z,21.32
2022-08-12T21:45:45.978Z,21.43
2022-08-12T21:47:20.798Z,21.41
2022-08-12T21:50:03.102Z,21.49
2022-08-12T21:52:40.562Z,21.45
2022-08-12T21:55:17.992Z,21.53
2022-08-12T21:57:53.414Z,21.46
2022-08-12T22:00:33.002Z,21.53
2022-08-12T22:04:01.271Z,21.18
2022-08-12T22:06:20.359Z,20.80
2022-08-12T22:09:02.321Z,20.84
2022-08-12T22:11:42.379Z,21.06
2022-08-12T22:14:17.983Z,21.22
2022-08-12T22:16:51.905Z,21.02
2022-08-12T22:19:22.950Z,21.18
2022-08-12T22:21:54.803Z,21.39
2022-08-12T22:24:27.076Z,21.20
2022-08-12T22:26:55.634Z,21.09
2022-08-12T22:29:41.204Z,21.18
2022-08-12T22:32:11.957Z,20.98
2022-08-12T22:34:39.831Z,20.93
2022-08-12T22:37:11.302Z,21.05
2022-08-12T22:39:43.958Z,21.06
2022-08-12T22:42:30.744Z,20.86
2022-08-12T22:45:17.060Z,21.03
2022-08-12T22:47:54.116Z,21.05
2022-08-12T22:50:28.082Z,21.14
2022-08-12T22:53:15.537Z,20.99
2022-08-12T22:56:00.193Z,21.01
2022-08-12T22:58:34.025Z,21.05
2022-08-12T23:01:01.838Z,20.99
2022-08-12T23:03:49.409Z,21.07
2022-08-12T23:06:19.901Z,20.87
2022-08-12T23:08:48.086Z,20.92
2022-08-12T23:11:16.234Z,20.88
2022-08-12T23:13:57.011Z,20.84
2022-08-12T23:16:31.663Z,20.97
2022-08-12T23:19:18.243Z,20.94
2022-08-12T23:22:05.356Z,21.02
2022-08-12T23:24:53.732Z,21.09
2022-08-12T23:27:52.336Z,21.04
2022-08-12T23:30:31.894Z,20.95
2022-08-12T23:33:19.937Z,20.99
2022-08-12T23:36:02.580Z,20.93
2022-08-12T23:38:32.276Z,20.90
2022-08-12T23:41:02.659Z,20.90
2022-08-12T23:43:40.023Z,20.76
2022-08-12T23:46:10.444Z,20.89
2022-08-12T23:48:38.904Z,20.82
2022-08-12T23:51:22.465Z,20.86
2022-08-12T23:54:02.558Z,20.90
2022-08-12T23:56:33.135Z,20.85
2022-08-12T23:59:04.003Z,20.90
